Time;durP1;ratioP1;P1;durP2;ratioP2;P2;SDS_P1;SDS_P2;PMS_P1;PMS_P2;Temp;Humidity;BMP_temperature;BMP_pressure;BME280_temperature;BME280_humidity;BME280_pressure;Samples;Min_cycle;Max_cycle;Signal;HPM_P1;HPM_P2
2022/03/29 00:00:38;;;;;;;5.70;4.00;;;4.80;99.90;;;;;;4914498;29;20028;-79
2022/03/29 00:03:05;;;;;;;10.18;4.85;;;4.80;99.90;;;;;;4931045;29;20083;-84
2022/03/29 00:05:32;;;;;;;10.52;4.60;;;4.90;99.90;;;;;;4929715;29;20028;-84
2022/03/29 00:07:57;;;;;;;6.88;4.32;;;4.80;99.90;;;;;;4928607;29;20070;-78
2022/03/29 00:10:23;;;;;;;7.78;4.18;;;4.80;99.90;;;;;;4931274;29;20024;-80
2022/03/29 00:12:53;;;;;;;7.53;4.78;;;4.80;99.90;;;;;;4932948;29;20026;-84
2022/03/29 00:15:20;;;;;;;8.45;4.40;;;6.70;99.90;;;;;;4912500;29;20100;-84
2022/03/29 00:17:47;;;;;;;8.13;4.47;;;3.90;99.90;;;;;;4941135;29;20032;-83
2022/03/29 00:20:13;;;;;;;6.25;4.45;;;4.80;99.90;;;;;;4914781;29;20043;-84
2022/03/29 00:22:39;;;;;;;10.50;5.07;;;4.80;99.90;;;;;;4909778;29;20028;-82
2022/03/29 00:25:07;;;;;;;7.93;3.92;;;4.80;99.90;;;;;;4934816;29;20036;-83
2022/03/29 00:27:35;;;;;;;7.18;4.55;;;4.90;99.90;;;;;;4929401;29;20028;-83
2022/03/29 00:30:01;;;;;;;9.73;5.07;;;5.30;99.90;;;;;;4925716;29;20036;-81
2022/03/29 00:32:27;;;;;;;10.23;4.75;;;4.80;99.90;;;;;;4907319;29;20028;-82
2022/03/29 00:34:53;;;;;;;8.02;3.60;;;4.90;99.90;;;;;;4925009;29;20032;-79
2022/03/29 00:37:18;;;;;;;10.32;4.07;;;5.00;99.90;;;;;;4923496;29;20024;-82
2022/03/29 00:39:44;;;;;;;13.73;4.97;;;4.90;99.90;;;;;;4910452;29;20059;-81
2022/03/29 00:42:10;;;;;;;8.15;5.00;;;4.80;99.90;;;;;;4920116;29;20035;-81
2022/03/29 00:44:38;;;;;;;7.25;4.07;;;4.80;99.90;;;;;;4898277;29;20036;-79
2022/03/29 00:47:04;;;;;;;7.90;4.75;;;4.80;99.90;;;;;;4919254;29;20020;-82
2022/03/29 00:49:30;;;;;;;8.48;5.13;;;4.80;99.90;;;;;;4908236;29;20032;-81
2022/03/29 00:51:59;;;;;;;8.65;4.47;;;4.80;99.90;;;;;;4908626;29;20055;-82
2022/03/29 00:54:29;;;;;;;7.65;4.05;;;4.90;99.90;;;;;;4920564;29;20032;-79
2022/03/29 00:57:00;;;;;;;12.02;4.53;;;5.00;99.90;;;;;;4926016;29;20028;-83
2022/03/29 00:59:27;;;;;;;7.63;4.85;;;5.00;99.90;;;;;;4910179;29;20040;-84
2022/03/29 01:01:54;;;;;;;7.95;4.15;;;5.40;99.90;;;;;;4905767;29;20024;-85
2022/03/29 01:04:23;;;;;;;7.82;4.60;;;5.70;99.90;;;;;;4903844;29;20032;-81
2022/03/29 01:06:50;;;;;;;7.35;4.90;;;4.90;99.90;;;;;;4919384;29;20024;-84
2022/03/29 01:09:15;;;;;;;11.52;4.63;;;4.80;99.90;;;;;;4898591;29;20644;-80
2022/03/29 01:11:41;;;;;;;8.55;4.53;;;4.70;99.90;;;;;;4905180;29;20268;-81
2022/03/29 01:14:07;;;;;;;8.10;4.68;;;4.70;99.90;;;;;;4914009;29;20056;-81
2022/03/29 01:19:21;;;;;;;7.85;4.50;;;4.70;99.90;;;;;;4931207;29;20059;-84
2022/03/29 01:22:01;;;;;;;7.30;4.53;;;4.70;99.90;;;;;;4935855;29;20032;-83
2022/03/29 01:24:28;;;;;;;8.50;4.38;;;4.70;99.90;;;;;;4919969;29;20039;-82
2022/03/29 01:27:02;;;;;;;11.80;5.32;;;4.70;99.90;;;;;;4932267;29;20091;-81
2022/03/29 01:29:29;;;;;;;9.65;4.97;;;4.90;99.90;;;;;;4934317;29;20032;-85
2022/03/29 01:32:11;;;;;;;7.65;4.53;;;3.70;99.90;;;;;;4927892;29;20024;-86
2022/03/29 01:34:42;;;;;;;9.10;4.80;;;4.50;99.90;;;;;;4921744;29;20036;-85
2022/03/29 01:37:09;;;;;;;7.50;4.22;;;4.60;99.90;;;;;;4940556;29;20079;-83
2022/03/29 01:39:36;;;;;;;6.03;4.10;;;4.60;99.90;;;;;;4941969;29;20040;-79
2022/03/29 01:42:03;;;;;;;8.65;4.28;;;4.50;99.90;;;;;;4927685;29;20056;-80
2022/03/29 01:44:29;;;;;;;8.35;4.90;;;4.50;99.90;;;;;;4931779;29;20028;-81
2022/03/29 01:46:55;;;;;;;9.35;4.68;;;4.60;99.90;;;;;;4929454;29;20047;-81
2022/03/29 01:49:21;;;;;;;8.07;4.00;;;4.60;99.90;;;;;;4931149;29;20035;-81
2022/03/29 01:51:47;;;;;;;8.70;5.63;;;4.50;99.90;;;;;;4936213;29;20031;-85
2022/03/29 01:54:13;;;;;;;8.35;4.50;;;4.50;99.90;;;;;;4923451;29;20047;-84
2022/03/29 01:56:40;;;;;;;10.02;5.40;;;4.70;99.90;;;;;;4934324;29;20035;-81
2022/03/29 01:59:08;;;;;;;8.63;5.05;;;4.70;99.90;;;;;;4931153;29;20100;-79
2022/03/29 02:01:45;;;;;;;9.52;5.00;;;4.70;99.90;;;;;;4932427;29;20272;-79
2022/03/29 02:04:12;;;;;;;7.43;4.50;;;4.60;99.90;;;;;;4930866;29;20030;-80
2022/03/29 02:06:38;;;;;;;8.95;4.95;;;4.60;99.90;;;;;;4929833;29;20028;-81
2022/03/29 02:09:08;;;;;;;9.38;4.65;;;4.60;99.90;;;;;;4933097;29;20035;-81
2022/03/29 02:11:40;;;;;;;11.60;4.60;;;4.60;99.90;;;;;;4935503;29;20080;-80
2022/03/29 02:14:08;;;;;;;6.72;4.10;;;4.60;99.90;;;;;;4927221;29;20478;-79
2022/03/29 02:16:33;;;;;;;8.50;4.97;;;4.80;99.90;;;;;;4917599;29;20025;-79
2022/03/29 02:18:59;;;;;;;7.25;4.68;;;4.80;99.90;;;;;;4929487;29;20055;-78
2022/03/29 02:21:25;;;;;;;9.02;4.40;;;4.70;99.90;;;;;;4919632;29;20024;-78
2022/03/29 02:23:51;;;;;;;8.48;4.47;;;4.60;99.90;;;;;;4917989;29;20016;-79
2022/03/29 02:26:17;;;;;;;12.05;4.93;;;4.60;99.90;;;;;;4935041;29;20033;-79
2022/03/29 02:28:46;;;;;;;8.88;4.57;;;4.60;99.90;;;;;;4920553;29;20092;-80
2022/03/29 02:31:11;;;;;;;7.53;4.00;;;4.60;99.90;;;;;;4936868;29;20032;-78
2022/03/29 02:33:37;;;;;;;6.82;4.07;;;4.50;99.90;;;;;;4918886;29;20032;-79
2022/03/29 02:36:04;;;;;;;12.27;4.85;;;4.50;99.90;;;;;;4936454;29;20028;-79
2022/03/29 02:38:29;;;;;;;11.63;5.07;;;4.50;99.90;;;;;;4918839;29;20023;-79
2022/03/29 02:40:58;;;;;;;7.07;4.63;;;4.60;99.90;;;;;;4917997;29;20028;-80
2022/03/29 02:43:27;;;;;;;6.82;3.90;;;4.50;99.90;;;;;;4932451;29;20032;-79
2022/03/29 02:45:53;;;;;;;7.93;4.03;;;4.40;99.90;;;;;;4931567;29;20034;-81
2022/03/29 02:48:19;;;;;;;7.00;4.57;;;4.40;99.90;;;;;;4914482;29;20031;-83
2022/03/29 02:50:44;;;;;;;9.88;3.83;;;4.30;99.90;;;;;;4914001;29;20052;-81
2022/03/29 02:53:11;;;;;;;10.98;4.60;;;4.30;99.90;;;;;;4914883;29;20024;-80
2022/03/29 02:55:36;;;;;;;7.88;4.68;;;4.30;99.90;;;;;;4930527;29;20097;-79
2022/03/29 02:58:03;;;;;;;7.15;4.35;;;4.20;99.90;;;;;;4931562;29;20005;-79
2022/03/29 03:00:29;;;;;;;9.75;4.85;;;4.10;99.90;;;;;;4914485;29;20040;-80
2022/03/29 03:02:57;;;;;;;7.30;4.28;;;4.10;99.90;;;;;;4931010;29;20091;-80
2022/03/29 03:05:26;;;;;;;7.30;4.25;;;4.10;99.90;;;;;;4911939;29;20389;-79
2022/03/29 03:07:53;;;;;;;6.80;3.58;;;4.00;99.90;;;;;;4914236;29;20020;-79
2022/03/29 03:10:20;;;;;;;6.03;4.07;;;4.00;99.90;;;;;;4915084;29;20060;-81
2022/03/29 03:12:47;;;;;;;7.72;4.28;;;3.90;99.90;;;;;;4914944;29;20024;-81
2022/03/29 03:15:16;;;;;;;7.70;4.05;;;3.50;99.90;;;;;;4931035;29;20048;-79
2022/03/29 03:17:42;;;;;;;7.40;4.25;;;3.80;99.90;;;;;;4914512;29;20012;-80
2022/03/29 03:20:08;;;;;;;9.30;4.75;;;3.80;99.90;;;;;;4916657;29;20044;-79
2022/03/29 03:22:42;;;;;;;11.40;4.65;;;3.70;99.90;;;;;;4915889;29;20032;-80
2022/03/29 03:25:10;;;;;;;8.73;4.18;;;3.70;99.90;;;;;;4915257;29;20036;-79
2022/03/29 03:27:36;;;;;;;5.50;3.70;;;3.60;99.90;;;;;;4932835;29;20422;-79
2022/03/29 03:30:06;;;;;;;7.00;4.45;;;3.60;99.90;;;;;;4917725;29;20018;-78
2022/03/29 03:32:31;;;;;;;6.72;4.22;;;3.60;99.90;;;;;;4917973;29;20096;-79
2022/03/29 03:34:57;;;;;;;10.45;4.45;;;3.50;99.90;;;;;;4917199;29;20036;-79
2022/03/29 03:37:24;;;;;;;7.05;4.55;;;3.50;99.90;;;;;;4918816;29;20013;-80
2022/03/29 03:39:51;;;;;;;7.57;4.60;;;3.70;99.90;;;;;;4917784;29;20028;-78
2022/03/29 03:42:16;;;;;;;8.68;4.75;;;3.90;99.90;;;;;;4932789;29;20019;-79
2022/03/29 03:44:42;;;;;;;7.95;4.93;;;3.80;99.90;;;;;;4936035;29;20044;-79
2022/03/29 03:47:08;;;;;;;8.00;3.95;;;3.80;99.90;;;;;;4950324;29;20052;-80
2022/03/29 03:49:35;;;;;;;12.55;5.13;;;3.70;99.90;;;;;;4916158;29;20032;-81
2022/03/29 03:52:00;;;;;;;7.50;4.60;;;3.60;99.90;;;;;;4931759;29;20027;-79
2022/03/29 03:54:26;;;;;;;10.65;4.35;;;3.50;99.90;;;;;;4913957;29;20028;-81
2022/03/29 03:56:52;;;;;;;7.38;4.68;;;3.50;99.90;;;;;;4932900;29;20088;-80
2022/03/29 03:59:18;;;;;;;8.30;4.97;;;3.40;99.90;;;;;;4912501;29;20044;-82
2022/03/29 04:01:43;;;;;;;7.47;4.68;;;3.50;99.90;;;;;;4929582;29;20052;-84
2022/03/29 04:04:09;;;;;;;8.75;5.22;;;3.50;99.90;;;;;;4929457;29;20032;-81
2022/03/29 04:06:35;;;;;;;8.75;4.47;;;3.50;99.90;;;;;;4914849;29;20012;-80
2022/03/29 04:09:01;;;;;;;8.75;4.95;;;3.50;99.90;;;;;;4914120;29;20028;-78
2022/03/29 04:11:26;;;;;;;9.45;4.63;;;3.50;99.90;;;;;;4915115;29;20043;-84
2022/03/29 04:13:53;;;;;;;9.65;4.50;;;3.40;99.90;;;;;;4947184;29;20048;-79
2022/03/29 04:16:19;;;;;;;8.02;4.75;;;3.30;99.90;;;;;;4947064;29;20027;-79
2022/03/29 04:18:44;;;;;;;11.75;5.22;;;3.30;99.90;;;;;;4946155;29;20095;-79
2022/03/29 04:21:11;;;;;;;7.57;4.45;;;3.40;99.90;;;;;;4935891;29;20031;-81
2022/03/29 04:23:37;;;;;;;12.48;4.90;;;3.60;99.90;;;;;;4951614;29;20096;-79
2022/03/29 04:26:04;;;;;;;9.68;4.55;;;3.80;99.90;;;;;;4934278;29;20035;-79
2022/03/29 04:28:31;;;;;;;10.18;4.93;;;3.80;99.90;;;;;;4935341;29;20020;-81
2022/03/29 04:30:58;;;;;;;11.35;4.43;;;3.80;99.90;;;;;;4918025;29;20044;-79
2022/03/29 04:33:24;;;;;;;8.70;4.25;;;3.70;99.90;;;;;;4931430;29;20104;-80
2022/03/29 04:35:50;;;;;;;7.15;5.03;;;3.70;99.90;;;;;;4947500;29;20052;-81
2022/03/29 04:38:16;;;;;;;6.63;4.93;;;3.70;99.90;;;;;;4949012;29;20028;-80
2022/03/29 04:40:42;;;;;;;8.45;5.10;;;3.60;99.90;;;;;;4917299;29;20043;-80
2022/03/29 04:43:07;;;;;;;9.38;4.35;;;3.70;99.90;;;;;;4933290;29;20020;-80
2022/03/29 04:45:33;;;;;;;10.88;5.10;;;3.70;99.90;;;;;;4917773;29;20036;-79
2022/03/29 04:47:59;;;;;;;7.10;4.03;;;3.70;99.90;;;;;;4934537;29;20024;-80
2022/03/29 04:50:25;;;;;;;9.27;4.53;;;3.70;99.90;;;;;;4917034;29;20200;-80
2022/03/29 04:52:51;;;;;;;8.63;4.95;;;3.70;99.90;;;;;;4947818;29;20187;-79
2022/03/29 04:55:19;;;;;;;8.13;3.88;;;3.60;99.90;;;;;;4949051;29;20024;-84
2022/03/29 04:57:47;;;;;;;8.48;5.10;;;3.60;99.90;;;;;;4933487;29;20074;-81
2022/03/29 05:00:16;;;;;;;9.23;4.43;;;3.60;99.90;;;;;;4918204;29;20032;-84
2022/03/29 05:02:44;;;;;;;9.55;4.95;;;3.60;99.90;;;;;;4933930;29;20040;-80
2022/03/29 05:05:11;;;;;;;11.00;5.38;;;3.70;99.90;;;;;;4934247;29;20062;-81
2022/03/29 05:07:46;;;;;;;7.10;4.43;;;3.70;99.90;;;;;;4916218;29;20036;-81
2022/03/29 05:10:14;;;;;;;10.10;4.97;;;3.70;99.90;;;;;;4947958;29;20025;-80
2022/03/29 05:12:45;;;;;;;14.10;5.30;;;3.70;99.90;;;;;;4916398;29;20012;-83
2022/03/29 05:15:13;;;;;;;8.25;4.95;;;3.60;99.90;;;;;;4914415;29;20096;-81
2022/03/29 05:17:43;;;;;;;9.75;5.38;;;3.60;99.90;;;;;;4913814;29;20036;-80
2022/03/29 05:20:10;;;;;;;10.75;5.00;;;3.60;99.90;;;;;;4914432;29;20032;-80
2022/03/29 05:22:52;;;;;;;8.30;4.72;;;3.80;99.90;;;;;;4917221;29;20077;-85
2022/03/29 05:25:23;;;;;;;11.10;4.65;;;3.90;99.90;;;;;;4914976;29;20084;-79
2022/03/29 05:27:50;;;;;;;8.18;4.93;;;4.00;99.90;;;;;;4912956;29;20024;-81
2022/03/29 05:30:16;;;;;;;8.70;5.43;;;4.00;99.90;;;;;;4911750;29;20052;-80
2022/03/29 05:32:42;;;;;;;8.68;4.10;;;4.10;99.90;;;;;;4932444;29;20032;-81
2022/03/29 05:35:09;;;;;;;9.50;4.75;;;4.20;99.90;;;;;;4935543;29;20088;-81
2022/03/29 05:37:36;;;;;;;7.60;4.85;;;4.30;99.90;;;;;;4901111;29;20024;-81
2022/03/29 05:40:04;;;;;;;9.25;5.18;;;4.40;99.90;;;;;;4897254;29;20039;-81
2022/03/29 05:42:30;;;;;;;10.07;4.95;;;4.40;99.90;;;;;;4898598;29;20047;-81
2022/03/29 05:44:55;;;;;;;11.35;5.45;;;4.40;99.90;;;;;;4901904;29;20038;-82
2022/03/29 05:50:07;;;;;;;9.88;5.50;;;4.60;99.90;;;;;;4901173;29;20110;-81
2022/03/29 05:52:32;;;;;;;9.05;5.28;;;4.60;99.90;;;;;;4903721;29;20067;-83
2022/03/29 05:54:58;;;;;;;8.82;4.75;;;4.70;99.90;;;;;;4901600;29;20028;-81
2022/03/29 05:57:24;;;;;;;8.45;4.93;;;4.80;99.90;;;;;;4901119;29;20037;-82
2022/03/29 05:59:49;;;;;;;8.13;4.82;;;4.90;99.90;;;;;;4903962;29;20112;-82
2022/03/29 06:02:15;;;;;;;9.85;4.85;;;5.00;99.90;;;;;;4902323;29;20028;-81
2022/03/29 06:04:41;;;;;;;8.35;4.85;;;5.00;99.90;;;;;;4899736;29;20035;-81
2022/03/29 06:07:10;;;;;;;13.57;5.97;;;5.10;99.90;;;;;;4914784;29;20029;-82
2022/03/29 06:09:36;;;;;;;6.07;3.37;;;5.10;99.90;;;;;;4915509;29;20035;-81
2022/03/29 06:12:02;;;;;;;7.53;5.13;;;5.20;99.90;;;;;;4898741;29;20638;-81
2022/03/29 06:14:28;;;;;;;7.90;4.25;;;5.30;99.90;;;;;;4901142;29;20064;-82
2022/03/29 06:16:55;;;;;;;12.77;5.25;;;5.40;99.90;;;;;;4902468;29;20525;-82
2022/03/29 06:19:21;;;;;;;13.45;5.45;;;5.50;99.90;;;;;;4899549;29;20091;-81
2022/03/29 06:21:47;;;;;;;9.73;4.20;;;5.70;99.90;;;;;;4899118;29;20414;-82
2022/03/29 06:24:13;;;;;;;7.57;4.55;;;5.70;99.90;;;;;;4911930;29;20031;-81
2022/03/29 06:26:39;;;;;;;8.95;4.50;;;5.90;99.90;;;;;;4896035;29;20401;-81
2022/03/29 06:29:06;;;;;;;9.15;5.30;;;6.10;99.90;;;;;;4895711;29;20047;-80
2022/03/29 06:31:32;;;;;;;6.60;4.25;;;6.20;99.90;;;;;;4895286;29;20036;-81
2022/03/29 06:33:59;;;;;;;6.72;5.18;;;6.40;99.90;;;;;;4896445;29;20035;-81
2022/03/29 06:36:25;;;;;;;11.23;4.93;;;6.70;99.90;;;;;;4895624;29;20065;-81
2022/03/29 06:38:51;;;;;;;9.05;5.07;;;6.90;99.90;;;;;;4910492;29;20061;-81
2022/03/29 06:41:17;;;;;;;13.05;4.60;;;7.10;99.90;;;;;;4898510;29;20130;-83
2022/03/29 06:43:43;;;;;;;6.82;4.57;;;7.40;99.90;;;;;;4900963;29;20021;-82
2022/03/29 06:46:10;;;;;;;11.02;5.07;;;7.40;99.90;;;;;;4903729;29;20517;-83
2022/03/29 06:48:36;;;;;;;8.55;4.50;;;7.60;99.90;;;;;;4899875;29;20506;-82
2022/03/29 06:51:02;;;;;;;8.20;4.63;;;7.70;99.90;;;;;;4902943;29;20028;-82
2022/03/29 06:53:28;;;;;;;10.25;5.25;;;7.50;99.90;;;;;;4907045;29;20043;-83
2022/03/29 06:55:54;;;;;;;8.32;5.07;;;7.70;99.90;;;;;;4906861;29;20052;-82
2022/03/29 06:58:20;;;;;;;9.85;5.10;;;7.90;99.90;;;;;;4909541;29;20119;-83
2022/03/29 07:00:46;;;;;;;8.90;5.28;;;8.00;99.90;;;;;;4907295;29;20029;-83
2022/03/29 07:03:12;;;;;;;9.27;5.10;;;8.00;99.90;;;;;;4905043;29;20052;-83
2022/03/29 07:05:42;;;;;;;8.18;4.75;;;8.30;99.90;;;;;;4905807;29;20085;-83
2022/03/29 07:08:16;;;;;;;12.13;6.03;;;8.60;99.90;;;;;;4905818;29;20028;-83
2022/03/29 07:13:27;;;;;;;7.70;5.45;;;9.00;99.90;;;;;;4907526;29;20108;-83
2022/03/29 07:15:53;;;;;;;10.40;5.25;;;8.90;99.90;;;;;;4909026;29;20412;-84
2022/03/29 07:18:19;;;;;;;15.43;5.97;;;8.80;99.90;;;;;;4924622;29;20055;-81
2022/03/29 07:20:45;;;;;;;12.43;6.38;;;9.00;99.90;;;;;;4908109;29;20044;-82
2022/03/29 07:23:11;;;;;;;12.68;7.38;;;9.20;99.90;;;;;;4908437;29;20060;-83
2022/03/29 07:25:37;;;;;;;13.93;5.72;;;9.10;99.90;;;;;;4909355;29;20055;-82
2022/03/29 07:28:03;;;;;;;11.98;7.22;;;9.30;99.90;;;;;;4907088;29;20024;-84
2022/03/29 07:30:31;;;;;;;11.48;6.05;;;9.50;99.90;;;;;;4907012;29;20143;-83
2022/03/29 07:32:58;;;;;;;15.43;7.30;;;9.80;99.90;;;;;;4909132;29;20055;-83
2022/03/29 07:35:28;;;;;;;15.52;6.13;;;10.30;99.90;;;;;;4906255;29;20028;-83
2022/03/29 07:37:55;;;;;;;12.88;6.43;;;10.40;99.90;;;;;;4908063;29;20541;-82
2022/03/29 07:40:24;;;;;;;13.00;6.47;;;10.40;99.90;;;;;;4908843;29;20066;-82
2022/03/29 07:42:51;;;;;;;16.90;6.80;;;10.70;99.90;;;;;;4926398;29;20024;-83
2022/03/29 07:45:21;;;;;;;16.50;6.50;;;10.70;99.90;;;;;;4910339;29;20124;-83
2022/03/29 07:47:55;;;;;;;15.75;8.95;;;11.10;99.90;;;;;;4910114;29;20021;-84
2022/03/29 07:50:22;;;;;;;16.80;7.35;;;11.50;99.90;;;;;;4909398;29;20486;-82
2022/03/29 07:52:50;;;;;;;17.27;8.85;;;11.90;99.90;;;;;;4910204;29;20028;-83
2022/03/29 07:55:16;;;;;;;18.88;8.05;;;12.30;99.90;;;;;;4908553;29;20032;-83
2022/03/29 07:57:43;;;;;;;13.45;7.68;;;12.20;99.40;;;;;;4906069;29;20024;-82
2022/03/29 08:02:56;;;;;;;13.18;6.50;;;12.30;98.20;;;;;;4933957;29;20072;-84
2022/03/29 08:05:22;;;;;;;12.15;5.97;;;12.50;94.80;;;;;;4915412;29;20040;-83
2022/03/29 08:07:48;;;;;;;10.18;6.57;;;12.90;95.20;;;;;;4915842;29;20024;-85
2022/03/29 08:10:14;;;;;;;12.27;5.95;;;13.50;91.80;;;;;;4900548;29;20107;-83
2022/03/29 08:12:43;;;;;;;11.45;5.47;;;13.90;90.80;;;;;;4900235;29;20111;-87
2022/03/29 08:15:11;;;;;;;9.30;5.80;;;14.30;83.50;;;;;;4910543;29;20112;-82
2022/03/29 08:17:38;;;;;;;18.35;7.80;;;14.20;80.60;;;;;;4919602;29;20448;-83
2022/03/29 08:20:05;;;;;;;12.18;6.60;;;14.20;80.70;;;;;;4911336;29;20036;-87
2022/03/29 08:22:32;;;;;;;13.05;7.93;;;14.20;81.60;;;;;;4899436;29;20028;-84
2022/03/29 08:24:59;;;;;;;14.13;7.18;;;14.50;80.50;;;;;;4899982;29;20056;-86
2022/03/29 08:27:25;;;;;;;7.60;5.60;;;14.70;79.20;;;;;;4905902;29;20034;-83
2022/03/29 08:29:50;;;;;;;12.65;6.63;;;14.40;76.10;;;;;;4917677;29;20029;-82
2022/03/29 08:32:17;;;;;;;12.52;6.15;;;13.90;80.30;;;;;;4914043;29;20024;-84
2022/03/29 08:34:43;;;;;;;13.60;5.53;;;13.70;81.40;;;;;;4916489;29;20028;-83
2022/03/29 08:37:09;;;;;;;11.75;6.80;;;13.70;82.30;;;;;;4930183;29;20024;-83
2022/03/29 08:39:35;;;;;;;10.05;5.30;;;13.60;81.40;;;;;;4932130;29;20036;-83
2022/03/29 08:42:11;;;;;;;11.20;4.90;;;13.90;81.30;;;;;;4916989;29;20024;-81
2022/03/29 08:44:39;;;;;;;9.45;5.85;;;14.20;80.90;;;;;;4920332;29;20044;-83
2022/03/29 08:47:09;;;;;;;12.35;6.28;;;14.60;78.80;;;;;;4934371;29;20024;-84
2022/03/29 08:49:35;;;;;;;16.60;6.45;;;15.00;78.50;;;;;;4903263;29;20066;-83
2022/03/29 08:52:02;;;;;;;11.73;5.90;;;15.40;74.80;;;;;;4930218;29;20438;-83
2022/03/29 08:54:28;;;;;;;10.85;6.43;;;15.50;74.50;;;;;;4912648;29;20036;-83
2022/03/29 08:56:54;;;;;;;10.82;6.55;;;15.20;73.30;;;;;;4934352;29;20035;-83
2022/03/29 08:59:20;;;;;;;10.52;5.65;;;15.10;73.80;;;;;;4913385;29;20056;-81
2022/03/29 09:01:47;;;;;;;15.65;6.20;;;15.10;71.90;;;;;;4906539;29;20334;-83
2022/03/29 09:04:21;;;;;;;10.52;6.40;;;14.90;72.50;;;;;;4905613;29;20286;-83
2022/03/29 09:06:50;;;;;;;8.38;5.30;;;14.70;74.60;;;;;;4906833;29;20462;-83
2022/03/29 09:09:37;;;;;;;11.80;6.03;;;14.90;73.70;;;;;;4932035;29;20028;-83
2022/03/29 09:12:16;;;;;;;11.35;5.63;;;15.20;75.10;;;;;;4919688;29;20077;-84
2022/03/29 09:14:58;;;;;;;;;;;15.30;71.20;;;;;;4928211;29;20059;-81
2022/03/29 09:17:35;;;;;;;8.10;5.13;;;15.20;71.10;;;;;;4913752;29;19907;-84
2022/03/29 09:20:10;;;;;;;10.20;5.43;;;15.60;70.20;;;;;;4917218;29;20111;-86
2022/03/29 09:22:46;;;;;;;10.40;5.85;;;15.80;69.40;;;;;;4914696;29;20028;-87
2022/03/29 09:25:14;;;;;;;9.95;5.65;;;16.20;68.70;;;;;;4899076;29;20032;-85
2022/03/29 09:27:59;;;;;;;9.85;5.60;;;16.40;66.90;;;;;;4901679;29;20028;-86
2022/03/29 09:30:38;;;;;;;8.23;5.75;;;16.40;66.50;;;;;;4899205;29;20501;-84
2022/03/29 09:33:07;;;;;;;13.13;5.88;;;16.20;65.10;;;;;;4911748;29;20028;-83
2022/03/29 09:35:37;;;;;;;12.85;6.95;;;16.20;64.00;;;;;;4915730;29;20055;-83
2022/03/29 09:38:21;;;;;;;9.30;5.75;;;16.00;63.60;;;;;;4911444;29;20028;-87
2022/03/29 09:40:46;;;;;;;12.45;5.75;;;16.00;63.60;;;;;;4898757;29;20040;-84
2022/03/29 09:43:13;;;;;;;12.43;6.47;;;16.50;64.30;;;;;;4898495;29;20032;-84
2022/03/29 09:45:45;;;;;;;9.93;5.53;;;16.70;63.20;;;;;;4898358;29;20064;-82
2022/03/29 09:48:32;;;;;;;12.35;6.47;;;17.00;60.00;;;;;;4898847;29;20031;-82
2022/03/29 09:51:10;;;;;;;14.98;6.10;;;17.10;61.90;;;;;;4936213;29;20046;-83
2022/03/29 09:53:40;;;;;;;17.27;6.70;;;17.10;58.20;;;;;;4899225;29;20453;-86
2022/03/29 09:56:08;;;;;;;12.02;5.65;;;17.40;58.60;;;;;;4898941;29;20028;-83
2022/03/29 09:58:34;;;;;;;12.02;5.93;;;17.40;57.80;;;;;;4914078;29;20032;-83
2022/03/29 10:01:01;;;;;;;13.48;6.03;;;17.20;57.70;;;;;;4915306;29;20130;-86
2022/03/29 10:03:27;;;;;;;10.80;6.28;;;17.20;58.20;;;;;;4915491;29;20141;-86
2022/03/29 10:06:01;;;;;;;15.88;6.93;;;17.20;58.10;;;;;;4897957;29;20513;-86
2022/03/29 10:11:15;;;;;;;10.48;5.88;;;17.40;57.10;;;;;;4915247;29;20039;-85
2022/03/29 10:13:42;;;;;;;10.93;5.70;;;17.50;55.40;;;;;;4903251;29;20044;-83
2022/03/29 10:16:13;;;;;;;25.60;8.75;;;17.50;54.30;;;;;;4917194;29;20589;-83
2022/03/29 10:18:42;;;;;;;19.08;8.60;;;17.50;53.90;;;;;;4911715;29;20099;-83
2022/03/29 10:21:13;;;;;;;13.05;5.90;;;17.40;54.40;;;;;;4908167;29;20039;-88
2022/03/29 10:23:43;;;;;;;11.95;6.20;;;17.80;53.90;;;;;;4896429;29;20036;-87
2022/03/29 10:26:09;;;;;;;;;;;18.20;55.10;;;;;;4897123;29;20035;-85
2022/03/29 10:28:35;;;;;;;10.70;5.93;;;18.40;53.30;;;;;;4896748;29;19911;-86
2022/03/29 10:31:01;;;;;;;10.35;5.60;;;18.50;53.80;;;;;;4913404;29;20492;-86
2022/03/29 10:33:31;;;;;;;14.77;7.05;;;18.60;51.50;;;;;;4914077;29;20028;-81
2022/03/29 10:36:08;;;;;;;11.68;6.60;;;18.20;52.60;;;;;;4919702;29;20024;-83
2022/03/29 10:38:46;;;;;;;12.88;5.80;;;18.40;52.00;;;;;;4953794;29;20051;-84
2022/03/29 10:41:28;;;;;;;12.02;6.07;;;18.20;52.00;;;;;;4950292;29;20456;-83
2022/03/29 10:44:04;;;;;;;12.43;5.90;;;18.30;52.80;;;;;;4952619;29;20028;-83
2022/03/29 10:46:42;;;;;;;12.90;5.45;;;16.00;51.00;;;;;;4930749;29;20047;-86
2022/03/29 10:49:32;;;;;;;13.60;5.47;;;18.60;50.70;;;;;;4925542;29;20054;-87
2022/03/29 10:52:06;;;;;;;12.93;7.13;;;19.10;51.30;;;;;;4943036;29;20070;-83
2022/03/29 10:55:12;;;;;;;11.48;5.82;;;19.10;50.70;;;;;;4953784;29;20314;-82
2022/03/29 10:57:38;;;;;;;11.07;6.03;;;18.70;52.30;;;;;;4918012;29;20028;-81
2022/03/29 11:00:11;;;;;;;18.25;6.63;;;18.70;51.10;;;;;;4935593;29;20048;-83
2022/03/29 11:02:58;;;;;;;11.98;6.72;;;18.40;51.20;;;;;;4951818;29;20034;-84
2022/03/29 11:05:24;;;;;;;18.23;6.25;;;19.10;53.80;;;;;;4941066;29;20351;-85
2022/03/29 11:07:53;;;;;;;12.30;5.57;;;19.00;50.60;;;;;;4917893;29;20145;-83
2022/03/29 11:10:21;;;;;;;11.00;5.40;;;19.20;49.20;;;;;;4927065;29;20161;-82
2022/03/29 11:12:52;;;;;;;7.70;5.63;;;19.50;51.30;;;;;;4925945;29;20366;-83
2022/03/29 11:15:37;;;;;;;12.23;5.13;;;19.80;50.60;;;;;;4911428;29;20055;-83
2022/03/29 11:18:23;;;;;;;20.75;6.13;;;19.90;49.00;;;;;;4926740;29;20080;-83
2022/03/29 11:20:56;;;;;;;13.55;4.88;;;20.10;47.80;;;;;;4925923;29;20032;-84
2022/03/29 11:23:58;;;;;;;16.27;6.05;;;20.20;48.50;;;;;;4927936;29;20032;-82
2022/03/29 11:26:58;;;;;;;10.32;5.03;;;19.80;48.50;;;;;;4932973;29;20123;-82
2022/03/29 11:29:24;;;;;;;23.58;5.38;;;19.10;50.00;;;;;;4949512;29;20032;-81
2022/03/29 11:31:50;;;;;;;11.10;4.68;;;19.00;52.10;;;;;;4951141;29;20028;-79
2022/03/29 11:34:17;;;;;;;13.18;5.88;;;18.90;50.60;;;;;;4928839;29;20065;-82
2022/03/29 11:36:43;;;;;;;15.07;6.95;;;19.30;50.20;;;;;;4945538;29;20032;-81
2022/03/29 11:39:21;;;;;;;20.70;6.68;;;19.30;49.00;;;;;;4928275;29;20061;-84
2022/03/29 11:41:47;;;;;;;10.05;5.65;;;18.70;47.80;;;;;;4944038;29;20040;-82
2022/03/29 11:44:15;;;;;;;14.50;5.22;;;18.70;48.70;;;;;;4934256;29;20559;-81
2022/03/29 11:46:56;;;;;;;12.38;5.78;;;19.00;48.80;;;;;;4942673;29;20059;-81
2022/03/29 11:49:26;;;;;;;12.95;5.18;;;18.80;47.00;;;;;;4936044;29;20101;-82
2022/03/29 11:52:01;;;;;;;;;;;19.10;49.40;;;;;;4932027;29;20049;-83
2022/03/29 11:54:26;;;;;;;9.75;5.50;;;19.30;50.30;;;;;;4919390;29;19934;-81
2022/03/29 11:56:52;;;;;;;13.20;4.38;;;19.30;49.00;;;;;;4932477;29;20486;-79
2022/03/29 11:59:18;;;;;;;13.23;5.75;;;19.30;48.20;;;;;;4931899;29;20102;-81
2022/03/29 12:01:44;;;;;;;17.63;6.38;;;19.60;48.40;;;;;;4917217;29;20625;-82
2022/03/29 12:04:11;;;;;;;13.93;5.10;;;19.90;48.00;;;;;;4931736;29;20451;-86
2022/03/29 12:06:51;;;;;;;16.40;5.20;;;19.60;47.60;;;;;;4917103;29;20088;-87
2022/03/29 12:09:24;;;;;;;10.85;5.97;;;19.70;47.70;;;;;;4917125;29;20484;-82
2022/03/29 12:11:55;;;;;;;16.08;6.70;;;20.10;47.60;;;;;;4931430;29;20036;-82
2022/03/29 12:14:21;;;;;;;10.70;5.68;;;20.10;47.90;;;;;;4952947;29;20072;-82
2022/03/29 12:16:53;;;;;;;11.95;5.80;;;19.60;47.90;;;;;;4954015;29;20043;-84
2022/03/29 12:19:25;;;;;;;10.20;5.45;;;19.70;47.20;;;;;;4928442;29;20036;-82
2022/03/29 12:21:56;;;;;;;16.73;6.47;;;20.00;45.90;;;;;;4936392;29;20029;-83
2022/03/29 12:24:23;;;;;;;10.38;4.95;;;20.50;46.20;;;;;;4931326;29;20056;-84
2022/03/29 12:27:04;;;;;;;10.15;5.13;;;20.70;45.60;;;;;;4931599;29;20084;-87
2022/03/29 12:29:31;;;;;;;16.75;4.70;;;20.70;45.40;;;;;;4932019;29;20028;-87
2022/03/29 12:31:59;;;;;;;14.73;5.75;;;20.50;47.20;;;;;;4917142;29;20508;-87
2022/03/29 12:34:27;;;;;;;14.75;5.63;;;20.90;44.50;;;;;;4931316;29;20028;-84
2022/03/29 12:36:56;;;;;;;14.55;5.22;;;21.00;43.80;;;;;;4930941;29;20036;-88
2022/03/29 12:39:22;;;;;;;13.23;5.43;;;21.50;43.60;;;;;;4933574;29;20032;-83
2022/03/29 12:41:48;;;;;;;9.02;4.40;;;22.20;43.00;;;;;;4936143;29;20024;-84
2022/03/29 12:44:32;;;;;;;10.82;4.78;;;22.10;41.80;;;;;;4929211;29;20039;-83
2022/03/29 12:46:59;;;;;;;11.52;5.45;;;21.80;43.40;;;;;;4929592;29;20063;-83
2022/03/29 12:49:25;;;;;;;13.63;4.70;;;21.70;43.20;;;;;;4929008;29;20035;-82
2022/03/29 12:52:00;;;;;;;10.07;5.30;;;21.60;43.80;;;;;;4929202;29;20027;-84
2022/03/29 12:54:38;;;;;;;10.18;4.55;;;21.60;42.30;;;;;;4929324;29;20085;-85
2022/03/29 12:57:06;;;;;;;18.20;6.60;;;20.70;43.30;;;;;;4924563;29;20092;-83
2022/03/29 12:59:40;;;;;;;10.10;5.00;;;20.80;43.80;;;;;;4935347;29;20047;-84
2022/03/29 13:02:16;;;;;;;10.82;6.05;;;20.40;44.10;;;;;;4946255;29;20024;-82
2022/03/29 13:04:48;;;;;;;9.30;4.85;;;19.90;44.80;;;;;;4951787;29;20028;-84
2022/03/29 13:07:32;;;;;;;12.32;4.68;;;19.50;45.10;;;;;;4933604;29;20028;-82
2022/03/29 13:10:26;;;;;;;10.82;5.53;;;20.10;43.90;;;;;;4917726;29;20441;-86